createdAt,value
2023-12-23T02:30:11.066Z,100101.13
2023-12-23T02:59:58.166Z,100099.90
2023-12-23T03:29:44.025Z,100094.27
2023-12-23T03:44:35.735Z,100068.72
2023-12-23T03:59:27.474Z,100070.67
2023-12-23T04:14:19.080Z,100086.61
2023-12-23T04:29:11.227Z,100055.80
2023-12-23T04:44:02.109Z,100028.88
2023-12-23T04:58:53.759Z,100033.92
2023-12-23T05:13:45.359Z,100040.64
2023-12-23T05:28:35.793Z,100041.27
2023-12-23T05:43:27.092Z,100030.28
2023-12-23T05:58:19.206Z,100014.30
2023-12-23T06:13:10.354Z,100030.19
2023-12-23T06:28:02.450Z,100003.50
2023-12-23T06:42:54.169Z,100020.23
2023-12-23T06:57:46.319Z,100022.02
2023-12-23T07:12:37.411Z,100018.42
2023-12-23T07:27:28.304Z,100019.25
2023-12-23T07:42:20.039Z,100025.27
2023-12-23T07:57:11.743Z,100022.93
2023-12-23T08:12:03.472Z,100048.58
2023-12-23T08:26:55.572Z,100036.52
2023-12-23T08:41:47.538Z,100045.09
2023-12-23T08:56:39.460Z,100050.19
2023-12-23T09:11:31.950Z,100079.88
2023-12-23T09:26:25.058Z,100118.20
2023-12-23T09:41:17.099Z,100103.55
2023-12-23T09:56:07.963Z,100116.97
2023-12-23T10:10:58.907Z,100115.50
2023-12-23T10:25:54.268Z,100075.00
2023-12-23T10:40:52.113Z,100095.80
2023-12-23T10:55:47.075Z,100083.47
2023-12-23T11:10:38.785Z,100096.19
2023-12-23T11:25:38.687Z,100076.05
2023-12-23T11:40:34.911Z,100087.14
2023-12-23T11:55:27.683Z,100106.09
2023-12-23T12:10:19.357Z,100124.70
2023-12-23T12:25:11.310Z,100094.46
2023-12-23T12:40:03.525Z,100076.78
2023-12-23T12:54:52.272Z,100086.70
2023-12-23T13:09:43.187Z,100070.97
2023-12-23T13:24:34.081Z,100111.06
2023-12-23T13:39:25.786Z,100102.91
2023-12-23T13:54:17.497Z,100115.34
2023-12-23T14:09:08.802Z,100141.89
2023-12-23T14:23:59.708Z,100148.87
2023-12-23T14:38:51.431Z,100159.69
2023-12-23T14:53:42.794Z,100193.37
2023-12-23T15:08:33.326Z,100197.86
2023-12-23T15:23:26.987Z,100195.11
2023-12-23T15:38:20.187Z,100198.42
2023-12-23T15:53:12.178Z,100214.00
2023-12-23T16:08:04.919Z,100208.53
2023-12-23T16:22:55.370Z,100210.21
2023-12-23T16:37:46.183Z,100209.97
2023-12-23T16:52:38.655Z,100212.92
2023-12-23T17:22:36.262Z,100218.02
2023-12-23T17:37:27.163Z,100233.77
2023-12-23T17:52:18.891Z,100253.73
2023-12-23T18:07:10.645Z,100269.39
2023-12-23T18:22:02.969Z,100268.16
2023-12-23T18:36:54.728Z,100274.67
2023-12-23T18:51:46.791Z,100300.75
2023-12-23T19:06:37.862Z,100287.89
2023-12-23T19:21:29.410Z,100289.52
2023-12-23T19:36:20.476Z,100284.13
2023-12-23T20:06:02.388Z,100309.23
2023-12-23T20:50:38.911Z,100305.34
2023-12-23T21:05:30.193Z,100299.50
2023-12-23T21:20:21.518Z,100293.16
2023-12-23T21:35:12.516Z,100303.92
2023-12-23T21:50:04.226Z,100286.80
2023-12-23T22:04:55.420Z,100299.34
2023-12-23T22:19:47.370Z,100309.18
2023-12-23T22:34:37.619Z,100326.98
2023-12-23T22:49:28.843Z,100327.87
2023-12-23T23:04:21.442Z,100315.67
2023-12-23T23:34:20.935Z,100292.79
2023-12-23T23:49:13.031Z,100303.42
